sensor_id;sensor_type;location;lat;lon;timestamp;P1;durP1;ratioP1;P2;durP2;ratioP2
13651;SDS011;6899;51.546;6.912;2023-03-21T00:00:12;23.80;;;9.85;;
13651;SDS011;6899;51.546;6.912;2023-03-21T00:02:40;21.67;;;11.30;;
13651;SDS011;6899;51.546;6.912;2023-03-21T00:05:10;23.67;;;10.82;;
13651;SDS011;6899;51.546;6.912;2023-03-21T00:07:42;18.05;;;9.43;;
13651;SDS011;6899;51.546;6.912;2023-03-21T00:10:16;18.08;;;10.40;;
13651;SDS011;6899;51.546;6.912;2023-03-21T00:12:43;20.30;;;9.27;;
13651;SDS011;6899;51.546;6.912;2023-03-21T00:15:19;20.05;;;10.20;;
13651;SDS011;6899;51.546;6.912;2023-03-21T00:17:46;20.27;;;9.98;;
13651;SDS011;6899;51.546;6.912;2023-03-21T00:20:15;17.25;;;10.30;;
13651;SDS011;6899;51.546;6.912;2023-03-21T00:22:42;21.50;;;9.45;;
13651;SDS011;6899;51.546;6.912;2023-03-21T00:25:09;17.88;;;10.35;;
13651;SDS011;6899;51.546;6.912;2023-03-21T00:27:37;19.98;;;9.90;;
13651;SDS011;6899;51.546;6.912;2023-03-21T00:30:04;27.27;;;9.45;;
13651;SDS011;6899;51.546;6.912;2023-03-21T00:32:32;18.20;;;9.82;;
13651;SDS011;6899;51.546;6.912;2023-03-21T00:34:58;21.40;;;9.73;;
13651;SDS011;6899;51.546;6.912;2023-03-21T00:37:25;21.45;;;9.75;;
13651;SDS011;6899;51.546;6.912;2023-03-21T00:39:58;17.13;;;9.95;;
13651;SDS011;6899;51.546;6.912;2023-03-21T00:42:25;23.95;;;10.80;;
13651;SDS011;6899;51.546;6.912;2023-03-21T00:44:56;17.85;;;9.30;;
13651;SDS011;6899;51.546;6.912;2023-03-21T00:47:22;17.63;;;9.18;;
13651;SDS011;6899;51.546;6.912;2023-03-21T00:49:52;20.63;;;9.80;;
13651;SDS011;6899;51.546;6.912;2023-03-21T00:52:20;16.38;;;7.93;;
13651;SDS011;6899;51.546;6.912;2023-03-21T00:54:47;20.13;;;8.20;;
13651;SDS011;6899;51.546;6.912;2023-03-21T00:57:14;17.60;;;7.82;;
13651;SDS011;6899;51.546;6.912;2023-03-21T00:59:40;15.77;;;7.50;;
13651;SDS011;6899;51.546;6.912;2023-03-21T01:02:08;14.65;;;8.07;;
13651;SDS011;6899;51.546;6.912;2023-03-21T01:04:38;18.75;;;8.27;;
13651;SDS011;6899;51.546;6.912;2023-03-21T01:07:06;13.95;;;7.85;;
13651;SDS011;6899;51.546;6.912;2023-03-21T01:09:33;22.75;;;8.32;;
13651;SDS011;6899;51.546;6.912;2023-03-21T01:12:00;17.45;;;8.40;;
13651;SDS011;6899;51.546;6.912;2023-03-21T01:14:28;20.83;;;9.30;;
13651;SDS011;6899;51.546;6.912;2023-03-21T01:16:55;20.63;;;8.50;;
13651;SDS011;6899;51.546;6.912;2023-03-21T01:19:23;14.75;;;8.88;;
13651;SDS011;6899;51.546;6.912;2023-03-21T01:21:52;15.68;;;8.70;;
13651;SDS011;6899;51.546;6.912;2023-03-21T01:24:19;13.52;;;8.15;;
13651;SDS011;6899;51.546;6.912;2023-03-21T01:26:45;17.58;;;8.35;;
13651;SDS011;6899;51.546;6.912;2023-03-21T01:29:12;20.30;;;9.10;;
13651;SDS011;6899;51.546;6.912;2023-03-21T01:31:42;20.80;;;9.80;;
13651;SDS011;6899;51.546;6.912;2023-03-21T01:34:09;21.83;;;9.98;;
13651;SDS011;6899;51.546;6.912;2023-03-21T01:36:37;19.67;;;9.48;;
13651;SDS011;6899;51.546;6.912;2023-03-21T01:39:04;18.63;;;10.35;;
13651;SDS011;6899;51.546;6.912;2023-03-21T01:41:32;17.63;;;8.10;;
13651;SDS011;6899;51.546;6.912;2023-03-21T01:44:00;18.98;;;9.80;;
13651;SDS011;6899;51.546;6.912;2023-03-21T01:46:31;18.77;;;8.90;;
13651;SDS011;6899;51.546;6.912;2023-03-21T01:49:02;18.10;;;8.82;;
13651;SDS011;6899;51.546;6.912;2023-03-21T01:51:34;22.02;;;8.40;;
13651;SDS011;6899;51.546;6.912;2023-03-21T01:54:04;14.68;;;8.60;;
13651;SDS011;6899;51.546;6.912;2023-03-21T01:56:41;17.08;;;8.75;;
13651;SDS011;6899;51.546;6.912;2023-03-21T01:59:11;19.33;;;8.82;;
13651;SDS011;6899;51.546;6.912;2023-03-21T02:01:42;17.65;;;8.77;;
13651;SDS011;6899;51.546;6.912;2023-03-21T02:04:10;16.90;;;9.43;;
13651;SDS011;6899;51.546;6.912;2023-03-21T02:06:40;18.48;;;9.32;;
13651;SDS011;6899;51.546;6.912;2023-03-21T02:09:13;16.30;;;8.93;;
13651;SDS011;6899;51.546;6.912;2023-03-21T02:11:43;19.30;;;8.90;;
13651;SDS011;6899;51.546;6.912;2023-03-21T02:14:12;16.85;;;8.45;;
13651;SDS011;6899;51.546;6.912;2023-03-21T02:16:49;18.40;;;8.38;;
13651;SDS011;6899;51.546;6.912;2023-03-21T02:28:27;16.35;;;8.48;;
13651;SDS011;6899;51.546;6.912;2023-03-21T02:34:11;19.58;;;9.68;;
13651;SDS011;6899;51.546;6.912;2023-03-21T02:39:49;21.13;;;9.88;;
13651;SDS011;6899;51.546;6.912;2023-03-21T02:42:22;16.30;;;9.45;;
13651;SDS011;6899;51.546;6.912;2023-03-21T02:44:55;15.38;;;10.02;;
13651;SDS011;6899;51.546;6.912;2023-03-21T02:47:27;20.55;;;11.18;;
13651;SDS011;6899;51.546;6.912;2023-03-21T02:50:04;18.83;;;10.25;;
13651;SDS011;6899;51.546;6.912;2023-03-21T02:52:41;19.25;;;10.57;;
13651;SDS011;6899;51.546;6.912;2023-03-21T02:55:11;23.35;;;11.38;;
13651;SDS011;6899;51.546;6.912;2023-03-21T02:57:43;25.30;;;12.55;;
13651;SDS011;6899;51.546;6.912;2023-03-21T03:00:14;18.90;;;11.43;;
13651;SDS011;6899;51.546;6.912;2023-03-21T03:02:47;18.75;;;11.55;;
13651;SDS011;6899;51.546;6.912;2023-03-21T03:05:16;16.67;;;10.68;;
13651;SDS011;6899;51.546;6.912;2023-03-21T03:07:48;23.13;;;12.10;;
13651;SDS011;6899;51.546;6.912;2023-03-21T03:10:32;19.67;;;12.02;;
13651;SDS011;6899;51.546;6.912;2023-03-21T03:13:09;21.35;;;12.23;;
13651;SDS011;6899;51.546;6.912;2023-03-21T03:15:46;23.80;;;13.02;;
13651;SDS011;6899;51.546;6.912;2023-03-21T03:18:23;20.23;;;11.50;;
13651;SDS011;6899;51.546;6.912;2023-03-21T03:20:59;26.88;;;14.15;;
13651;SDS011;6899;51.546;6.912;2023-03-21T03:23:34;22.23;;;12.50;;
13651;SDS011;6899;51.546;6.912;2023-03-21T03:26:09;20.20;;;11.18;;
13651;SDS011;6899;51.546;6.912;2023-03-21T03:28:40;25.63;;;12.88;;
13651;SDS011;6899;51.546;6.912;2023-03-21T03:31:11;24.60;;;12.70;;
13651;SDS011;6899;51.546;6.912;2023-03-21T03:33:46;21.02;;;11.23;;
13651;SDS011;6899;51.546;6.912;2023-03-21T03:36:17;26.88;;;12.70;;
13651;SDS011;6899;51.546;6.912;2023-03-21T03:38:47;17.80;;;11.07;;
13651;SDS011;6899;51.546;6.912;2023-03-21T03:41:16;19.05;;;11.25;;
13651;SDS011;6899;51.546;6.912;2023-03-21T03:43:47;22.15;;;11.50;;
13651;SDS011;6899;51.546;6.912;2023-03-21T03:46:21;19.90;;;11.20;;
13651;SDS011;6899;51.546;6.912;2023-03-21T03:48:53;20.00;;;12.38;;
13651;SDS011;6899;51.546;6.912;2023-03-21T03:51:22;20.10;;;11.27;;
13651;SDS011;6899;51.546;6.912;2023-03-21T03:53:54;20.52;;;11.60;;
13651;SDS011;6899;51.546;6.912;2023-03-21T03:56:24;21.70;;;11.30;;
13651;SDS011;6899;51.546;6.912;2023-03-21T03:58:52;18.38;;;11.25;;
13651;SDS011;6899;51.546;6.912;2023-03-21T04:01:19;23.20;;;10.75;;
13651;SDS011;6899;51.546;6.912;2023-03-21T04:03:46;18.45;;;11.00;;
13651;SDS011;6899;51.546;6.912;2023-03-21T04:06:13;22.98;;;11.07;;
13651;SDS011;6899;51.546;6.912;2023-03-21T04:08:41;16.67;;;10.27;;
13651;SDS011;6899;51.546;6.912;2023-03-21T04:11:11;16.75;;;10.43;;
13651;SDS011;6899;51.546;6.912;2023-03-21T04:13:39;16.50;;;9.88;;
13651;SDS011;6899;51.546;6.912;2023-03-21T04:16:06;22.85;;;10.35;;
13651;SDS011;6899;51.546;6.912;2023-03-21T04:18:34;19.48;;;10.48;;
13651;SDS011;6899;51.546;6.912;2023-03-21T04:21:05;17.90;;;10.43;;
13651;SDS011;6899;51.546;6.912;2023-03-21T04:23:33;16.70;;;10.88;;
13651;SDS011;6899;51.546;6.912;2023-03-21T04:26:00;19.35;;;10.00;;
13651;SDS011;6899;51.546;6.912;2023-03-21T04:28:29;18.17;;;10.40;;
13651;SDS011;6899;51.546;6.912;2023-03-21T04:30:55;21.88;;;10.85;;
13651;SDS011;6899;51.546;6.912;2023-03-21T04:33:22;18.10;;;9.48;;
13651;SDS011;6899;51.546;6.912;2023-03-21T04:35:50;19.35;;;10.57;;
13651;SDS011;6899;51.546;6.912;2023-03-21T04:38:20;19.20;;;9.75;;
13651;SDS011;6899;51.546;6.912;2023-03-21T04:40:49;20.98;;;10.13;;
13651;SDS011;6899;51.546;6.912;2023-03-21T04:43:15;23.77;;;10.32;;
13651;SDS011;6899;51.546;6.912;2023-03-21T04:45:43;17.67;;;10.00;;
13651;SDS011;6899;51.546;6.912;2023-03-21T04:48:10;18.42;;;8.95;;
13651;SDS011;6899;51.546;6.912;2023-03-21T04:50:38;20.80;;;9.57;;
13651;SDS011;6899;51.546;6.912;2023-03-21T04:53:05;17.90;;;9.82;;
13651;SDS011;6899;51.546;6.912;2023-03-21T04:55:31;17.88;;;10.15;;
13651;SDS011;6899;51.546;6.912;2023-03-21T04:57:58;14.63;;;9.35;;
13651;SDS011;6899;51.546;6.912;2023-03-21T05:00:25;18.73;;;9.70;;
13651;SDS011;6899;51.546;6.912;2023-03-21T05:02:53;16.90;;;9.63;;
13651;SDS011;6899;51.546;6.912;2023-03-21T05:05:27;20.50;;;9.85;;
13651;SDS011;6899;51.546;6.912;2023-03-21T05:07:54;18.77;;;10.13;;
13651;SDS011;6899;51.546;6.912;2023-03-21T05:10:20;18.35;;;10.07;;
13651;SDS011;6899;51.546;6.912;2023-03-21T05:12:47;24.38;;;10.05;;
13651;SDS011;6899;51.546;6.912;2023-03-21T05:15:17;21.13;;;10.15;;
13651;SDS011;6899;51.546;6.912;2023-03-21T05:17:44;20.83;;;9.90;;
13651;SDS011;6899;51.546;6.912;2023-03-21T05:20:14;20.02;;;10.57;;
13651;SDS011;6899;51.546;6.912;2023-03-21T05:22:41;28.17;;;10.57;;
13651;SDS011;6899;51.546;6.912;2023-03-21T05:25:10;19.15;;;9.45;;
13651;SDS011;6899;51.546;6.912;2023-03-21T05:27:44;17.88;;;10.10;;
13651;SDS011;6899;51.546;6.912;2023-03-21T05:30:18;25.17;;;10.93;;
13651;SDS011;6899;51.546;6.912;2023-03-21T05:32:45;17.77;;;9.60;;
13651;SDS011;6899;51.546;6.912;2023-03-21T05:35:13;19.67;;;9.65;;
13651;SDS011;6899;51.546;6.912;2023-03-21T05:37:40;14.02;;;9.38;;
13651;SDS011;6899;51.546;6.912;2023-03-21T05:40:07;24.48;;;12.65;;
13651;SDS011;6899;51.546;6.912;2023-03-21T05:42:35;20.70;;;10.98;;
13651;SDS011;6899;51.546;6.912;2023-03-21T05:45:01;20.85;;;11.85;;
13651;SDS011;6899;51.546;6.912;2023-03-21T05:47:29;18.02;;;10.77;;
13651;SDS011;6899;51.546;6.912;2023-03-21T05:49:55;17.33;;;11.30;;
13651;SDS011;6899;51.546;6.912;2023-03-21T05:52:23;20.92;;;10.48;;
13651;SDS011;6899;51.546;6.912;2023-03-21T05:54:50;19.17;;;12.43;;
13651;SDS011;6899;51.546;6.912;2023-03-21T05:57:17;21.55;;;11.05;;
13651;SDS011;6899;51.546;6.912;2023-03-21T05:59:44;23.48;;;12.55;;
13651;SDS011;6899;51.546;6.912;2023-03-21T06:02:11;20.80;;;12.35;;
13651;SDS011;6899;51.546;6.912;2023-03-21T06:04:37;24.17;;;11.07;;
13651;SDS011;6899;51.546;6.912;2023-03-21T06:07:08;22.10;;;12.45;;
13651;SDS011;6899;51.546;6.912;2023-03-21T06:09:36;22.45;;;12.63;;
13651;SDS011;6899;51.546;6.912;2023-03-21T06:12:03;21.25;;;11.98;;
13651;SDS011;6899;51.546;6.912;2023-03-21T06:14:30;21.85;;;12.25;;
13651;SDS011;6899;51.546;6.912;2023-03-21T06:16:56;20.27;;;11.57;;
13651;SDS011;6899;51.546;6.912;2023-03-21T06:19:23;21.50;;;11.77;;
13651;SDS011;6899;51.546;6.912;2023-03-21T06:21:58;22.88;;;12.50;;
13651;SDS011;6899;51.546;6.912;2023-03-21T06:24:25;21.55;;;11.73;;
13651;SDS011;6899;51.546;6.912;2023-03-21T06:26:53;21.80;;;11.93;;
13651;SDS011;6899;51.546;6.912;2023-03-21T06:29:21;26.25;;;13.20;;
13651;SDS011;6899;51.546;6.912;2023-03-21T06:31:51;21.10;;;11.95;;
13651;SDS011;6899;51.546;6.912;2023-03-21T06:34:20;21.17;;;11.70;;
13651;SDS011;6899;51.546;6.912;2023-03-21T06:36:47;21.75;;;11.77;;
13651;SDS011;6899;51.546;6.912;2023-03-21T06:39:16;20.90;;;11.38;;
13651;SDS011;6899;51.546;6.912;2023-03-21T06:41:42;24.13;;;12.18;;
13651;SDS011;6899;51.546;6.912;2023-03-21T06:44:11;22.63;;;13.00;;
13651;SDS011;6899;51.546;6.912;2023-03-21T06:46:37;29.98;;;13.40;;
13651;SDS011;6899;51.546;6.912;2023-03-21T06:49:04;22.25;;;12.52;;
13651;SDS011;6899;51.546;6.912;2023-03-21T06:51:31;21.67;;;11.85;;
13651;SDS011;6899;51.546;6.912;2023-03-21T06:53:58;21.13;;;11.90;;
13651;SDS011;6899;51.546;6.912;2023-03-21T06:56:25;19.75;;;11.70;;
13651;SDS011;6899;51.546;6.912;2023-03-21T06:58:51;22.63;;;12.80;;
13651;SDS011;6899;51.546;6.912;2023-03-21T07:01:20;21.05;;;11.93;;
13651;SDS011;6899;51.546;6.912;2023-03-21T07:03:46;18.63;;;11.13;;
13651;SDS011;6899;51.546;6.912;2023-03-21T07:06:13;19.70;;;11.55;;
13651;SDS011;6899;51.546;6.912;2023-03-21T07:08:41;19.70;;;12.35;;
13651;SDS011;6899;51.546;6.912;2023-03-21T07:11:07;19.90;;;11.23;;
13651;SDS011;6899;51.546;6.912;2023-03-21T07:13:34;20.90;;;11.93;;
13651;SDS011;6899;51.546;6.912;2023-03-21T07:16:01;26.80;;;11.50;;
13651;SDS011;6899;51.546;6.912;2023-03-21T07:18:29;24.75;;;12.00;;
13651;SDS011;6899;51.546;6.912;2023-03-21T07:20:56;24.60;;;10.90;;
13651;SDS011;6899;51.546;6.912;2023-03-21T07:23:26;27.65;;;12.13;;
13651;SDS011;6899;51.546;6.912;2023-03-21T07:25:53;25.00;;;11.75;;
13651;SDS011;6899;51.546;6.912;2023-03-21T07:28:21;21.52;;;10.88;;
13651;SDS011;6899;51.546;6.912;2023-03-21T07:30:51;22.00;;;11.38;;
13651;SDS011;6899;51.546;6.912;2023-03-21T07:33:19;20.95;;;10.15;;
13651;SDS011;6899;51.546;6.912;2023-03-21T07:35:48;20.23;;;10.73;;
13651;SDS011;6899;51.546;6.912;2023-03-21T07:38:15;20.45;;;10.38;;
13651;SDS011;6899;51.546;6.912;2023-03-21T07:40:43;14.55;;;9.35;;
13651;SDS011;6899;51.546;6.912;2023-03-21T07:43:10;18.88;;;10.38;;
13651;SDS011;6899;51.546;6.912;2023-03-21T07:45:37;16.58;;;9.90;;
13651;SDS011;6899;51.546;6.912;2023-03-21T07:48:04;19.50;;;10.00;;
13651;SDS011;6899;51.546;6.912;2023-03-21T07:50:30;19.60;;;8.93;;
13651;SDS011;6899;51.546;6.912;2023-03-21T07:52:58;15.20;;;9.05;;
13651;SDS011;6899;51.546;6.912;2023-03-21T07:55:25;15.10;;;8.40;;
13651;SDS011;6899;51.546;6.912;2023-03-21T07:57:52;19.20;;;8.45;;
13651;SDS011;6899;51.546;6.912;2023-03-21T08:00:19;16.02;;;8.93;;
13651;SDS011;6899;51.546;6.912;2023-03-21T08:02:48;16.38;;;8.52;;
13651;SDS011;6899;51.546;6.912;2023-03-21T08:05:18;19.77;;;8.95;;
13651;SDS011;6899;51.546;6.912;2023-03-21T08:07:46;16.33;;;8.70;;
13651;SDS011;6899;51.546;6.912;2023-03-21T08:10:14;15.65;;;8.98;;
13651;SDS011;6899;51.546;6.912;2023-03-21T08:12:41;17.25;;;8.68;;
13651;SDS011;6899;51.546;6.912;2023-03-21T08:15:08;12.90;;;8.15;;
13651;SDS011;6899;51.546;6.912;2023-03-21T08:17:36;15.73;;;8.07;;
13651;SDS011;6899;51.546;6.912;2023-03-21T08:20:04;14.57;;;7.28;;
13651;SDS011;6899;51.546;6.912;2023-03-21T08:22:33;16.67;;;8.30;;
13651;SDS011;6899;51.546;6.912;2023-03-21T08:25:00;16.23;;;8.43;;
13651;SDS011;6899;51.546;6.912;2023-03-21T08:27:30;20.40;;;8.40;;
13651;SDS011;6899;51.546;6.912;2023-03-21T08:29:56;17.63;;;8.68;;
13651;SDS011;6899;51.546;6.912;2023-03-21T08:32:23;17.33;;;8.25;;
13651;SDS011;6899;51.546;6.912;2023-03-21T08:34:53;17.75;;;8.10;;
13651;SDS011;6899;51.546;6.912;2023-03-21T08:37:21;14.95;;;9.15;;
13651;SDS011;6899;51.546;6.912;2023-03-21T08:39:48;16.08;;;8.07;;
13651;SDS011;6899;51.546;6.912;2023-03-21T08:42:15;14.85;;;8.40;;
13651;SDS011;6899;51.546;6.912;2023-03-21T08:44:44;18.52;;;8.20;;
13651;SDS011;6899;51.546;6.912;2023-03-21T08:47:11;12.23;;;7.95;;
13651;SDS011;6899;51.546;6.912;2023-03-21T08:49:38;14.50;;;8.23;;
13651;SDS011;6899;51.546;6.912;2023-03-21T08:52:09;15.88;;;8.27;;
13651;SDS011;6899;51.546;6.912;2023-03-21T08:54:36;13.60;;;7.50;;
13651;SDS011;6899;51.546;6.912;2023-03-21T08:57:04;12.93;;;7.72;;
13651;SDS011;6899;51.546;6.912;2023-03-21T08:59:32;17.92;;;8.30;;
13651;SDS011;6899;51.546;6.912;2023-03-21T09:02:00;14.38;;;8.07;;
13651;SDS011;6899;51.546;6.912;2023-03-21T09:04:27;16.13;;;8.93;;
13651;SDS011;6899;51.546;6.912;2023-03-21T09:06:55;15.63;;;7.53;;
13651;SDS011;6899;51.546;6.912;2023-03-21T09:09:21;18.80;;;8.82;;
13651;SDS011;6899;51.546;6.912;2023-03-21T09:11:48;14.70;;;7.68;;
13651;SDS011;6899;51.546;6.912;2023-03-21T09:14:15;19.67;;;8.55;;
13651;SDS011;6899;51.546;6.912;2023-03-21T09:16:42;14.35;;;8.63;;
13651;SDS011;6899;51.546;6.912;2023-03-21T09:19:10;16.08;;;8.18;;
13651;SDS011;6899;51.546;6.912;2023-03-21T09:21:37;12.95;;;7.93;;
13651;SDS011;6899;51.546;6.912;2023-03-21T09:24:04;18.63;;;8.27;;
13651;SDS011;6899;51.546;6.912;2023-03-21T09:26:32;16.38;;;8.65;;
13651;SDS011;6899;51.546;6.912;2023-03-21T09:28:59;13.40;;;8.52;;
13651;SDS011;6899;51.546;6.912;2023-03-21T09:31:27;20.88;;;8.73;;
13651;SDS011;6899;51.546;6.912;2023-03-21T09:33:54;17.92;;;8.65;;
13651;SDS011;6899;51.546;6.912;2023-03-21T09:36:23;18.42;;;9.70;;
13651;SDS011;6899;51.546;6.912;2023-03-21T09:38:51;20.58;;;11.65;;
13651;SDS011;6899;51.546;6.912;2023-03-21T09:41:26;18.30;;;9.40;;
13651;SDS011;6899;51.546;6.912;2023-03-21T09:44:05;14.65;;;9.05;;
13651;SDS011;6899;51.546;6.912;2023-03-21T09:46:42;17.67;;;9.45;;
13651;SDS011;6899;51.546;6.912;2023-03-21T09:49:15;19.13;;;8.93;;
13651;SDS011;6899;51.546;6.912;2023-03-21T09:51:47;18.23;;;9.18;;
13651;SDS011;6899;51.546;6.912;2023-03-21T09:54:17;15.20;;;9.13;;
13651;SDS011;6899;51.546;6.912;2023-03-21T09:56:47;17.50;;;10.00;;
13651;SDS011;6899;51.546;6.912;2023-03-21T09:59:18;14.57;;;9.13;;
13651;SDS011;6899;51.546;6.912;2023-03-21T10:01:49;13.43;;;8.38;;
13651;SDS011;6899;51.546;6.912;2023-03-21T10:04:17;14.02;;;8.20;;
13651;SDS011;6899;51.546;6.912;2023-03-21T10:06:49;14.55;;;8.75;;
13651;SDS011;6899;51.546;6.912;2023-03-21T10:09:21;13.60;;;8.23;;
13651;SDS011;6899;51.546;6.912;2023-03-21T10:11:52;17.50;;;8.40;;
13651;SDS011;6899;51.546;6.912;2023-03-21T10:14:23;12.82;;;8.27;;
13651;SDS011;6899;51.546;6.912;2023-03-21T10:16:55;15.75;;;8.75;;
13651;SDS011;6899;51.546;6.912;2023-03-21T10:19:25;17.88;;;9.05;;
13651;SDS011;6899;51.546;6.912;2023-03-21T10:21:55;15.48;;;9.35;;
13651;SDS011;6899;51.546;6.912;2023-03-21T10:24:23;16.92;;;9.45;;
13651;SDS011;6899;51.546;6.912;2023-03-21T10:26:54;18.98;;;9.85;;
13651;SDS011;6899;51.546;6.912;2023-03-21T10:29:22;15.68;;;9.55;;
13651;SDS011;6899;51.546;6.912;2023-03-21T10:31:52;15.73;;;9.40;;
13651;SDS011;6899;51.546;6.912;2023-03-21T10:34:23;18.73;;;10.30;;
13651;SDS011;6899;51.546;6.912;2023-03-21T10:36:58;18.08;;;11.57;;
13651;SDS011;6899;51.546;6.912;2023-03-21T10:39:30;18.42;;;11.52;;
13651;SDS011;6899;51.546;6.912;2023-03-21T10:41:59;21.40;;;10.55;;
13651;SDS011;6899;51.546;6.912;2023-03-21T10:44:27;17.70;;;10.30;;
13651;SDS011;6899;51.546;6.912;2023-03-21T10:46:56;16.73;;;9.43;;
13651;SDS011;6899;51.546;6.912;2023-03-21T10:49:23;17.73;;;9.27;;
13651;SDS011;6899;51.546;6.912;2023-03-21T10:51:52;15.30;;;10.10;;
13651;SDS011;6899;51.546;6.912;2023-03-21T10:54:25;17.02;;;10.13;;
13651;SDS011;6899;51.546;6.912;2023-03-21T10:56:55;17.80;;;9.63;;
13651;SDS011;6899;51.546;6.912;2023-03-21T10:59:24;13.80;;;9.43;;
13651;SDS011;6899;51.546;6.912;2023-03-21T11:01:54;16.35;;;9.55;;
13651;SDS011;6899;51.546;6.912;2023-03-21T11:04:23;18.17;;;9.82;;
13651;SDS011;6899;51.546;6.912;2023-03-21T11:06:51;16.52;;;10.18;;
13651;SDS011;6899;51.546;6.912;2023-03-21T11:09:21;14.90;;;10.15;;
13651;SDS011;6899;51.546;6.912;2023-03-21T11:11:51;15.25;;;9.32;;
13651;SDS011;6899;51.546;6.912;2023-03-21T11:14:27;17.15;;;9.85;;
13651;SDS011;6899;51.546;6.912;2023-03-21T11:17:06;14.27;;;8.77;;
13651;SDS011;6899;51.546;6.912;2023-03-21T11:19:46;17.67;;;10.18;;
13651;SDS011;6899;51.546;6.912;2023-03-21T11:22:14;18.52;;;9.38;;
13651;SDS011;6899;51.546;6.912;2023-03-21T11:24:44;15.32;;;9.60;;
13651;SDS011;6899;51.546;6.912;2023-03-21T11:27:16;14.73;;;9.25;;
13651;SDS011;6899;51.546;6.912;2023-03-21T11:29:44;12.82;;;8.15;;
13651;SDS011;6899;51.546;6.912;2023-03-21T11:32:20;13.32;;;7.93;;
13651;SDS011;6899;51.546;6.912;2023-03-21T11:34:50;14.15;;;8.40;;
13651;SDS011;6899;51.546;6.912;2023-03-21T11:37:24;11.98;;;7.63;;
13651;SDS011;6899;51.546;6.912;2023-03-21T11:40:04;18.30;;;9.13;;
13651;SDS011;6899;51.546;6.912;2023-03-21T11:42:44;14.07;;;7.95;;
13651;SDS011;6899;51.546;6.912;2023-03-21T11:45:14;11.73;;;8.10;;
13651;SDS011;6899;51.546;6.912;2023-03-21T11:47:42;11.90;;;7.50;;
13651;SDS011;6899;51.546;6.912;2023-03-21T11:50:14;9.75;;;7.10;;
13651;SDS011;6899;51.546;6.912;2023-03-21T11:52:45;12.00;;;7.13;;
13651;SDS011;6899;51.546;6.912;2023-03-21T11:55:31;12.60;;;6.20;;
13651;SDS011;6899;51.546;6.912;2023-03-21T11:58:13;11.70;;;6.35;;
13651;SDS011;6899;51.546;6.912;2023-03-21T12:00:48;12.65;;;7.15;;
13651;SDS011;6899;51.546;6.912;2023-03-21T12:06:23;10.95;;;6.22;;
13651;SDS011;6899;51.546;6.912;2023-03-21T12:09:03;10.57;;;5.93;;
13651;SDS011;6899;51.546;6.912;2023-03-21T12:11:42;13.23;;;6.60;;
13651;SDS011;6899;51.546;6.912;2023-03-21T12:14:18;11.10;;;5.90;;
13651;SDS011;6899;51.546;6.912;2023-03-21T12:16:56;9.35;;;5.72;;
13651;SDS011;6899;51.546;6.912;2023-03-21T12:19:38;9.02;;;5.57;;
13651;SDS011;6899;51.546;6.912;2023-03-21T12:22:20;11.63;;;5.88;;
13651;SDS011;6899;51.546;6.912;2023-03-21T12:24:54;9.35;;;4.70;;
13651;SDS011;6899;51.546;6.912;2023-03-21T12:27:26;9.80;;;5.63;;
13651;SDS011;6899;51.546;6.912;2023-03-21T12:30:06;8.98;;;5.30;;
13651;SDS011;6899;51.546;6.912;2023-03-21T12:32:52;11.57;;;5.43;;
13651;SDS011;6899;51.546;6.912;2023-03-21T12:35:34;10.75;;;5.78;;
13651;SDS011;6899;51.546;6.912;2023-03-21T12:38:14;8.13;;;4.82;;
13651;SDS011;6899;51.546;6.912;2023-03-21T12:40:46;9.48;;;4.72;;
13651;SDS011;6899;51.546;6.912;2023-03-21T12:43:27;7.32;;;4.93;;
13651;SDS011;6899;51.546;6.912;2023-03-21T12:46:02;8.23;;;4.53;;
13651;SDS011;6899;51.546;6.912;2023-03-21T12:48:34;9.30;;;4.72;;
13651;SDS011;6899;51.546;6.912;2023-03-21T12:51:07;10.80;;;4.75;;
13651;SDS011;6899;51.546;6.912;2023-03-21T12:53:46;8.90;;;4.72;;
13651;SDS011;6899;51.546;6.912;2023-03-21T12:56:24;11.30;;;4.95;;
13651;SDS011;6899;51.546;6.912;2023-03-21T12:58:57;7.05;;;4.95;;
13651;SDS011;6899;51.546;6.912;2023-03-21T13:01:31;9.35;;;4.97;;
13651;SDS011;6899;51.546;6.912;2023-03-21T13:07:06;6.65;;;4.32;;
13651;SDS011;6899;51.546;6.912;2023-03-21T13:09:38;8.02;;;4.70;;
13651;SDS011;6899;51.546;6.912;2023-03-21T13:12:23;8.35;;;4.72;;
13651;SDS011;6899;51.546;6.912;2023-03-21T13:15:06;7.53;;;4.38;;
13651;SDS011;6899;51.546;6.912;2023-03-21T13:17:44;7.45;;;4.45;;
13651;SDS011;6899;51.546;6.912;2023-03-21T13:20:18;5.95;;;4.55;;
13651;SDS011;6899;51.546;6.912;2023-03-21T13:22:51;8.00;;;4.72;;
13651;SDS011;6899;51.546;6.912;2023-03-21T13:25:19;10.68;;;4.68;;
13651;SDS011;6899;51.546;6.912;2023-03-21T13:27:50;9.63;;;4.50;;
13651;SDS011;6899;51.546;6.912;2023-03-21T13:30:20;8.35;;;4.32;;
13651;SDS011;6899;51.546;6.912;2023-03-21T13:32:50;9.27;;;4.82;;
13651;SDS011;6899;51.546;6.912;2023-03-21T13:35:21;7.70;;;4.43;;
13651;SDS011;6899;51.546;6.912;2023-03-21T13:37:51;7.55;;;4.63;;
13651;SDS011;6899;51.546;6.912;2023-03-21T13:40:28;5.32;;;4.20;;
13651;SDS011;6899;51.546;6.912;2023-03-21T13:43:02;6.35;;;4.28;;
13651;SDS011;6899;51.546;6.912;2023-03-21T13:45:31;8.80;;;5.07;;
13651;SDS011;6899;51.546;6.912;2023-03-21T13:48:01;7.70;;;4.18;;
13651;SDS011;6899;51.546;6.912;2023-03-21T13:50:34;9.27;;;4.47;;
13651;SDS011;6899;51.546;6.912;2023-03-21T13:53:24;7.05;;;3.72;;
13651;SDS011;6899;51.546;6.912;2023-03-21T13:56:18;6.93;;;4.30;;
13651;SDS011;6899;51.546;6.912;2023-03-21T13:58:52;7.20;;;4.72;;
13651;SDS011;6899;51.546;6.912;2023-03-21T14:01:34;6.45;;;3.90;;
13651;SDS011;6899;51.546;6.912;2023-03-21T14:04:10;6.38;;;4.03;;
13651;SDS011;6899;51.546;6.912;2023-03-21T14:06:41;6.15;;;4.47;;
13651;SDS011;6899;51.546;6.912;2023-03-21T14:09:15;8.20;;;4.40;;
13651;SDS011;6899;51.546;6.912;2023-03-21T14:11:46;8.57;;;4.22;;
13651;SDS011;6899;51.546;6.912;2023-03-21T14:14:16;6.63;;;4.55;;
13651;SDS011;6899;51.546;6.912;2023-03-21T14:16:45;6.90;;;3.90;;
13651;SDS011;6899;51.546;6.912;2023-03-21T14:19:12;5.72;;;4.13;;
13651;SDS011;6899;51.546;6.912;2023-03-21T14:21:45;8.73;;;4.25;;
13651;SDS011;6899;51.546;6.912;2023-03-21T14:24:15;5.75;;;3.83;;
13651;SDS011;6899;51.546;6.912;2023-03-21T14:26:43;6.82;;;4.18;;
13651;SDS011;6899;51.546;6.912;2023-03-21T14:29:14;6.07;;;4.07;;
13651;SDS011;6899;51.546;6.912;2023-03-21T14:31:47;8.25;;;4.40;;
13651;SDS011;6899;51.546;6.912;2023-03-21T14:34:14;8.73;;;4.90;;
13651;SDS011;6899;51.546;6.912;2023-03-21T14:36:42;5.65;;;3.63;;
13651;SDS011;6899;51.546;6.912;2023-03-21T14:39:12;9.02;;;4.07;;
13651;SDS011;6899;51.546;6.912;2023-03-21T14:41:42;7.07;;;4.45;;
13651;SDS011;6899;51.546;6.912;2023-03-21T14:44:16;6.95;;;4.35;;
13651;SDS011;6899;51.546;6.912;2023-03-21T14:46:50;4.68;;;4.10;;
13651;SDS011;6899;51.546;6.912;2023-03-21T14:49:20;6.93;;;4.60;;
13651;SDS011;6899;51.546;6.912;2023-03-21T14:51:50;6.75;;;4.43;;
13651;SDS011;6899;51.546;6.912;2023-03-21T14:54:20;7.47;;;4.60;;
13651;SDS011;6899;51.546;6.912;2023-03-21T14:56:48;6.35;;;5.00;;
13651;SDS011;6899;51.546;6.912;2023-03-21T14:59:18;7.25;;;4.38;;
13651;SDS011;6899;51.546;6.912;2023-03-21T15:01:52;6.63;;;4.55;;
13651;SDS011;6899;51.546;6.912;2023-03-21T15:04:20;7.95;;;4.45;;
13651;SDS011;6899;51.546;6.912;2023-03-21T15:06:48;7.03;;;4.68;;
13651;SDS011;6899;51.546;6.912;2023-03-21T15:09:26;6.32;;;4.20;;
13651;SDS011;6899;51.546;6.912;2023-03-21T15:11:55;9.65;;;4.30;;
13651;SDS011;6899;51.546;6.912;2023-03-21T15:14:24;7.03;;;4.57;;
13651;SDS011;6899;51.546;6.912;2023-03-21T15:16:57;9.30;;;4.60;;
13651;SDS011;6899;51.546;6.912;2023-03-21T15:19:30;8.77;;;4.65;;
13651;SDS011;6899;51.546;6.912;2023-03-21T15:22:00;7.35;;;4.47;;
13651;SDS011;6899;51.546;6.912;2023-03-21T15:24:35;5.22;;;4.15;;